Time;durP1;ratioP1;P1;durP2;ratioP2;P2;SDS_P1;SDS_P2;PMS_P1;PMS_P2;Temp;Humidity;BMP_temperature;BMP_pressure;BME280_temperature;BME280_humidity;BME280_pressure;Samples;Min_cycle;Max_cycle;Signal;HPM_P1;HPM_P2
2023/09/06 00:00:34;;;;;;;16.52;12.85;;;15.50;99.90;;;;;;2092689;28;20028;-77
2023/09/06 00:01:34;;;;;;;14.60;12.75;;;15.50;99.90;;;;;;2090851;28;20040;-78
2023/09/06 00:02:35;;;;;;;16.45;13.07;;;15.50;99.90;;;;;;2087014;28;20119;-69
2023/09/06 00:03:37;;;;;;;16.05;12.50;;;15.50;99.90;;;;;;2091996;28;20062;-69
2023/09/06 00:04:37;;;;;;;14.98;12.50;;;15.50;99.90;;;;;;2086402;28;20024;-69
2023/09/06 00:05:41;;;;;;;15.45;12.50;;;15.40;99.90;;;;;;2092054;28;20039;-70
2023/09/06 00:06:42;;;;;;;14.57;11.85;;;15.40;99.90;;;;;;2088741;28;20037;-70
2023/09/06 00:07:45;;;;;;;16.42;12.48;;;15.40;99.90;;;;;;2091904;28;20465;-70
2023/09/06 00:08:45;;;;;;;14.77;12.55;;;15.40;99.90;;;;;;2083911;28;20068;-70
2023/09/06 00:09:46;;;;;;;15.48;12.38;;;15.40;99.90;;;;;;2094121;28;20036;-68
2023/09/06 00:10:47;;;;;;;15.18;12.60;;;15.40;99.90;;;;;;2085936;28;20061;-71
2023/09/06 00:11:48;;;;;;;17.20;13.02;;;15.40;99.90;;;;;;2092452;28;20027;-71
2023/09/06 00:12:49;;;;;;;17.35;12.77;;;15.40;99.90;;;;;;2090202;28;20024;-75
2023/09/06 00:13:49;;;;;;;14.05;12.45;;;15.30;99.90;;;;;;2089788;28;20600;-75
2023/09/06 00:14:50;;;;;;;15.38;12.77;;;15.30;99.90;;;;;;2086841;28;20039;-74
2023/09/06 00:15:50;;;;;;;17.08;12.38;;;15.30;99.90;;;;;;2092784;28;20037;-74
2023/09/06 00:16:51;;;;;;;15.30;12.35;;;15.30;99.90;;;;;;2089487;28;20659;-74
2023/09/06 00:17:51;;;;;;;13.93;12.43;;;15.30;99.90;;;;;;2086433;28;20553;-74
2023/09/06 00:18:52;;;;;;;15.00;12.65;;;15.30;99.90;;;;;;2088820;28;20445;-74
2023/09/06 00:19:52;;;;;;;15.82;12.32;;;15.30;99.90;;;;;;2088143;28;20052;-74
2023/09/06 00:20:53;;;;;;;14.27;12.55;;;15.30;99.90;;;;;;2084656;28;20040;-74
2023/09/06 00:21:54;;;;;;;17.27;12.73;;;15.30;99.90;;;;;;2087221;28;20557;-73
2023/09/06 00:22:57;;;;;;;14.05;12.55;;;15.30;99.90;;;;;;2093515;28;20127;-73
2023/09/06 00:23:58;;;;;;;16.13;12.55;;;15.30;99.90;;;;;;2090648;28;20033;-74
2023/09/06 00:24:58;;;;;;;16.90;12.13;;;15.30;99.90;;;;;;2085838;28;20059;-74
2023/09/06 00:25:59;;;;;;;15.38;12.63;;;15.20;99.90;;;;;;2092344;28;20106;-74
2023/09/06 00:27:03;;;;;;;14.98;12.60;;;15.20;99.90;;;;;;2076427;28;20049;-75
2023/09/06 00:28:05;;;;;;;15.73;12.40;;;15.20;99.90;;;;;;2084267;28;20029;-74
2023/09/06 00:29:09;;;;;;;13.63;12.23;;;15.20;99.90;;;;;;2084234;28;20043;-74
2023/09/06 00:30:10;;;;;;;15.18;12.70;;;15.20;99.90;;;;;;2084454;28;20064;-73
2023/09/06 00:31:10;;;;;;;16.85;12.50;;;15.20;99.90;;;;;;2085394;28;20021;-73
2023/09/06 00:32:11;;;;;;;15.57;13.45;;;15.20;99.90;;;;;;2091191;28;20024;-73
2023/09/06 00:33:13;;;;;;;14.32;12.82;;;15.20;99.90;;;;;;2092157;28;20555;-74
2023/09/06 00:34:14;;;;;;;13.73;12.30;;;15.10;99.90;;;;;;2083620;28;20028;-74
2023/09/06 00:35:18;;;;;;;16.45;12.93;;;15.10;99.90;;;;;;2087197;28;20055;-74
2023/09/06 00:36:19;;;;;;;15.15;12.88;;;15.10;99.90;;;;;;2088176;28;20048;-75
2023/09/06 00:37:19;;;;;;;14.98;12.82;;;15.10;99.90;;;;;;2090919;28;20020;-74
2023/09/06 00:38:20;;;;;;;13.93;12.38;;;15.10;99.90;;;;;;2092660;28;20025;-73
2023/09/06 00:39:21;;;;;;;15.88;13.25;;;15.10;99.90;;;;;;2087384;28;20029;-74
2023/09/06 00:40:22;;;;;;;15.23;12.88;;;15.10;99.90;;;;;;2093133;28;20128;-73
2023/09/06 00:41:23;;;;;;;16.20;12.95;;;15.10;99.90;;;;;;2088076;28;20033;-75
2023/09/06 00:42:26;;;;;;;14.30;12.63;;;15.00;99.90;;;;;;2094277;28;20031;-74
2023/09/06 00:43:27;;;;;;;14.85;12.80;;;15.00;99.90;;;;;;2078348;28;20904;-74
2023/09/06 00:44:27;;;;;;;14.68;13.00;;;15.00;99.90;;;;;;2088178;28;20028;-74
2023/09/06 00:45:50;;;;;;;16.15;12.27;;;15.00;99.90;;;;;;2092851;28;20024;-74
2023/09/06 00:46:51;;;;;;;15.00;13.18;;;15.00;99.90;;;;;;2082170;28;20013;-74
2023/09/06 00:47:53;;;;;;;15.25;13.00;;;14.90;99.90;;;;;;2077893;28;20879;-74
2023/09/06 00:48:55;;;;;;;15.85;12.73;;;15.00;99.90;;;;;;2085152;28;20047;-74
2023/09/06 00:49:55;;;;;;;15.00;12.68;;;14.90;99.90;;;;;;2092167;28;20084;-73
2023/09/06 00:50:56;;;;;;;15.80;12.85;;;14.90;99.90;;;;;;2094285;28;20187;-74
2023/09/06 00:51:57;;;;;;;15.43;12.57;;;15.00;99.90;;;;;;2094890;28;20098;-74
2023/09/06 00:52:59;;;;;;;15.23;12.80;;;14.90;99.90;;;;;;2094654;28;20032;-74
2023/09/06 00:54:00;;;;;;;15.32;12.77;;;14.90;99.90;;;;;;2076737;28;20029;-73
2023/09/06 00:55:01;;;;;;;14.85;12.75;;;14.90;99.90;;;;;;2079452;28;20068;-73
2023/09/06 00:56:03;;;;;;;15.30;12.85;;;14.90;99.90;;;;;;2083136;28;20046;-73
2023/09/06 00:57:04;;;;;;;14.27;12.35;;;14.90;99.90;;;;;;2086723;28;20108;-74
2023/09/06 00:58:08;;;;;;;15.32;12.35;;;14.90;99.90;;;;;;2077479;28;20393;-74
2023/09/06 00:59:12;;;;;;;15.13;12.90;;;14.90;99.90;;;;;;2083666;28;20021;-74
2023/09/06 01:00:17;;;;;;;14.68;12.73;;;14.90;99.90;;;;;;2087272;28;20029;-74
2023/09/06 01:01:18;;;;;;;15.85;13.20;;;14.90;99.90;;;;;;2087134;28;20047;-74
2023/09/06 01:02:19;;;;;;;14.60;12.43;;;14.90;99.90;;;;;;2089702;28;20028;-74
2023/09/06 01:03:20;;;;;;;14.38;12.32;;;14.90;99.90;;;;;;2093850;28;20035;-73
2023/09/06 01:04:22;;;;;;;15.45;12.85;;;14.80;99.90;;;;;;2080276;28;20025;-74
2023/09/06 01:05:26;;;;;;;14.13;12.63;;;14.80;99.90;;;;;;2088242;28;20048;-74
2023/09/06 01:06:29;;;;;;;14.75;12.95;;;14.80;99.90;;;;;;2091348;28;20055;-74
2023/09/06 01:07:34;;;;;;;14.38;12.77;;;14.80;99.90;;;;;;2081334;28;20038;-75
2023/09/06 01:08:40;;;;;;;15.73;13.25;;;14.70;99.90;;;;;;2076693;28;20021;-74
2023/09/06 01:09:41;;;;;;;14.27;12.40;;;14.80;99.90;;;;;;2083943;28;20037;-73
2023/09/06 01:10:41;;;;;;;14.35;12.57;;;14.80;99.90;;;;;;2087071;28;20059;-74
2023/09/06 01:11:42;;;;;;;15.05;13.05;;;14.70;99.90;;;;;;2082768;28;20025;-73
2023/09/06 01:12:43;;;;;;;16.25;13.15;;;14.70;99.90;;;;;;2084629;28;20499;-73
2023/09/06 01:13:43;;;;;;;15.50;13.50;;;14.70;99.90;;;;;;2087722;28;20095;-73
2023/09/06 01:14:44;;;;;;;15.65;12.65;;;14.70;99.90;;;;;;2095236;28;20021;-72
2023/09/06 01:15:46;;;;;;;16.02;12.48;;;14.70;99.90;;;;;;2095673;28;20506;-73
2023/09/06 01:16:48;;;;;;;16.25;13.30;;;14.70;99.90;;;;;;2092961;28;20012;-72
2023/09/06 01:17:52;;;;;;;14.90;12.85;;;14.70;99.90;;;;;;2089486;28;20071;-73
2023/09/06 01:18:53;;;;;;;14.38;12.80;;;14.70;99.90;;;;;;2091530;28;20036;-74
2023/09/06 01:19:59;;;;;;;14.90;13.30;;;14.60;99.90;;;;;;2089687;28;20408;-74
2023/09/06 01:21:06;;;;;;;15.45;13.00;;;14.60;99.90;;;;;;2092801;28;20115;-73
2023/09/06 01:22:34;;;;;;;15.52;12.85;;;14.60;99.90;;;;;;2092699;28;20112;-76
2023/09/06 01:23:37;;;;;;;14.85;13.13;;;14.60;99.90;;;;;;2091567;28;20212;-75
2023/09/06 01:24:38;;;;;;;15.40;13.20;;;14.60;99.90;;;;;;2080636;28;20048;-76
2023/09/06 01:25:39;;;;;;;15.45;12.93;;;14.60;99.90;;;;;;2091378;28;20058;-77
2023/09/06 01:26:41;;;;;;;15.93;13.32;;;14.60;99.90;;;;;;2084227;28;20045;-76
2023/09/06 01:27:43;;;;;;;16.75;13.05;;;14.60;99.90;;;;;;2083670;28;20025;-76
2023/09/06 01:28:44;;;;;;;17.50;13.40;;;14.60;99.90;;;;;;2079359;28;20118;-75
2023/09/06 01:29:45;;;;;;;18.30;13.30;;;14.60;99.90;;;;;;2075540;28;20045;-75
2023/09/06 01:30:46;;;;;;;17.17;13.07;;;14.60;99.90;;;;;;2091808;28;20052;-75
2023/09/06 01:31:48;;;;;;;15.63;13.27;;;14.60;99.90;;;;;;2092615;28;20093;-75
2023/09/06 01:32:48;;;;;;;16.90;13.98;;;14.50;99.90;;;;;;2088854;28;20025;-74
2023/09/06 01:33:49;;;;;;;15.07;13.07;;;14.50;99.90;;;;;;2091551;28;20028;-75
2023/09/06 01:34:49;;;;;;;17.02;13.90;;;14.50;99.90;;;;;;2087110;28;20078;-74
2023/09/06 01:35:50;;;;;;;15.15;13.55;;;14.50;99.90;;;;;;2089203;28;20017;-74
2023/09/06 01:36:51;;;;;;;15.05;12.98;;;14.50;99.90;;;;;;2091860;28;20060;-74
2023/09/06 01:37:52;;;;;;;14.10;12.32;;;14.50;99.90;;;;;;2085975;28;20108;-74
2023/09/06 01:38:53;;;;;;;15.57;13.73;;;14.50;99.90;;;;;;2093217;28;20020;-76
2023/09/06 01:39:53;;;;;;;14.48;12.93;;;14.50;99.90;;;;;;2087887;28;20395;-76
2023/09/06 01:40:54;;;;;;;16.17;14.02;;;14.50;99.90;;;;;;2087959;28;20029;-76
2023/09/06 01:41:54;;;;;;;19.60;14.02;;;14.40;99.90;;;;;;2090883;28;20032;-76
2023/09/06 01:42:55;;;;;;;17.15;13.82;;;14.40;99.90;;;;;;2087133;28;20547;-76
2023/09/06 01:43:56;;;;;;;15.15;13.55;;;14.40;99.90;;;;;;2089458;28;20058;-76
2023/09/06 01:44:57;;;;;;;16.88;14.05;;;14.40;99.90;;;;;;2093245;28;20074;-76
2023/09/06 01:45:58;;;;;;;16.20;13.98;;;14.40;99.90;;;;;;2084717;28;20029;-74
2023/09/06 01:46:59;;;;;;;19.33;14.85;;;14.40;99.90;;;;;;2077846;28;20108;-75
2023/09/06 01:48:02;;;;;;;16.05;13.85;;;14.40;99.90;;;;;;2086184;28;20167;-72
2023/09/06 01:49:03;;;;;;;16.85;14.30;;;14.40;99.90;;;;;;2091640;28;20077;-72
2023/09/06 01:50:04;;;;;;;18.52;14.82;;;14.40;99.90;;;;;;2085099;28;20053;-72
2023/09/06 01:51:08;;;;;;;18.23;14.98;;;14.40;99.90;;;;;;2092122;28;20419;-73
2023/09/06 01:52:10;;;;;;;16.50;14.25;;;14.40;99.90;;;;;;2091497;28;20019;-72
2023/09/06 01:53:14;;;;;;;18.92;14.60;;;14.40;99.90;;;;;;2084116;28;20025;-72
2023/09/06 01:54:15;;;;;;;16.30;14.13;;;14.40;99.90;;;;;;2095246;28;20029;-72
2023/09/06 01:55:16;;;;;;;17.58;14.60;;;14.40;99.90;;;;;;2094932;28;20395;-70
2023/09/06 01:56:17;;;;;;;17.40;14.77;;;14.30;99.90;;;;;;2091447;28;20093;-72
2023/09/06 01:57:17;;;;;;;19.38;15.25;;;14.30;99.90;;;;;;2087479;28;20036;-72
2023/09/06 01:58:18;;;;;;;16.60;14.80;;;14.30;99.90;;;;;;2090696;28;20024;-74
2023/09/06 01:59:19;;;;;;;18.13;14.55;;;14.30;99.90;;;;;;2083207;28;20052;-72
2023/09/06 02:01:23;;;;;;;18.83;14.60;;;14.30;99.90;;;;;;2099615;28;20503;-71
2023/09/06 02:02:24;;;;;;;18.40;14.15;;;14.20;99.90;;;;;;2086353;28;20044;-70
2023/09/06 02:03:27;;;;;;;17.48;13.70;;;14.20;99.90;;;;;;2088473;28;20105;-70
2023/09/06 02:04:27;;;;;;;16.92;14.18;;;14.20;99.90;;;;;;2080473;28;20032;-71
2023/09/06 02:05:30;;;;;;;16.35;14.10;;;14.20;99.90;;;;;;2078825;28;20029;-71
2023/09/06 02:06:30;;;;;;;16.02;13.90;;;14.20;99.90;;;;;;2076987;28;20032;-71
2023/09/06 02:07:31;;;;;;;15.80;14.07;;;14.20;99.90;;;;;;2075808;28;20036;-71
2023/09/06 02:08:32;;;;;;;15.10;13.45;;;14.20;99.90;;;;;;2087414;28;20020;-71
2023/09/06 02:09:32;;;;;;;17.35;14.35;;;14.10;99.90;;;;;;2087638;28;20594;-71
2023/09/06 02:10:34;;;;;;;16.25;14.55;;;14.20;99.90;;;;;;2088442;28;20499;-72
2023/09/06 02:11:35;;;;;;;19.35;14.68;;;14.20;99.90;;;;;;2092560;28;20036;-70
2023/09/06 02:12:37;;;;;;;16.00;13.77;;;14.20;99.90;;;;;;2083658;28;20024;-71
2023/09/06 02:13:38;;;;;;;19.13;15.15;;;14.20;99.90;;;;;;2091653;28;20035;-70
2023/09/06 02:14:39;;;;;;;15.85;14.13;;;14.20;99.90;;;;;;2087091;28;20032;-71
2023/09/06 02:15:40;;;;;;;17.38;14.27;;;14.20;99.90;;;;;;2085967;28;20037;-71
2023/09/06 02:16:41;;;;;;;15.52;13.82;;;14.10;99.90;;;;;;2086057;28;20052;-70
2023/09/06 02:17:43;;;;;;;17.73;14.75;;;14.20;99.90;;;;;;2084211;28;20028;-70
2023/09/06 02:18:43;;;;;;;16.00;14.15;;;14.20;99.90;;;;;;2090186;28;20381;-70
2023/09/06 02:19:44;;;;;;;17.45;14.68;;;14.10;99.90;;;;;;2078998;28;20109;-70
2023/09/06 02:20:45;;;;;;;16.83;14.40;;;14.10;99.90;;;;;;2091025;28;20035;-70
2023/09/06 02:21:46;;;;;;;17.77;14.57;;;14.10;99.90;;;;;;2083829;28;20059;-70
2023/09/06 02:22:51;;;;;;;15.65;13.98;;;14.10;99.90;;;;;;2086816;28;20048;-69
2023/09/06 02:23:53;;;;;;;15.27;13.43;;;14.10;99.90;;;;;;2083790;28;20024;-71
2023/09/06 02:24:53;;;;;;;16.13;13.98;;;14.10;99.90;;;;;;2084587;28;20029;-71
2023/09/06 02:25:56;;;;;;;17.75;14.55;;;14.10;99.90;;;;;;2094403;28;20518;-70
2023/09/06 02:26:57;;;;;;;17.25;13.95;;;14.10;99.90;;;;;;2094101;28;20028;-70
2023/09/06 02:28:02;;;;;;;18.33;14.40;;;14.10;99.90;;;;;;2085642;28;20099;-70
2023/09/06 02:29:04;;;;;;;16.83;14.27;;;14.10;99.90;;;;;;2087298;28;20033;-70
2023/09/06 02:30:06;;;;;;;16.98;14.85;;;14.10;99.90;;;;;;2090795;28;20623;-70
2023/09/06 02:31:07;;;;;;;17.13;14.57;;;14.00;99.90;;;;;;2080069;28;20029;-70
2023/09/06 02:32:07;;;;;;;17.45;14.27;;;14.10;99.90;;;;;;2084652;28;20029;-70
2023/09/06 02:33:11;;;;;;;16.63;14.35;;;14.00;99.90;;;;;;2092309;28;20025;-69
2023/09/06 02:34:12;;;;;;;18.45;15.45;;;14.00;99.90;;;;;;2091914;28;20024;-71
2023/09/06 02:35:13;;;;;;;17.67;14.88;;;14.00;99.90;;;;;;2085029;28;20017;-70
2023/09/06 02:36:14;;;;;;;17.08;14.82;;;14.00;99.90;;;;;;2087618;28;20029;-70
2023/09/06 02:37:14;;;;;;;17.85;14.60;;;14.00;99.90;;;;;;2083292;28;20041;-70
2023/09/06 02:38:15;;;;;;;17.45;14.55;;;14.00;99.90;;;;;;2082667;28;20104;-70
2023/09/06 02:39:17;;;;;;;17.15;14.48;;;14.00;99.90;;;;;;2083814;28;20405;-71
2023/09/06 02:40:20;;;;;;;20.30;14.65;;;14.00;99.90;;;;;;2087330;28;20025;-70
2023/09/06 02:41:20;;;;;;;17.13;15.00;;;14.00;99.90;;;;;;2087907;28;20055;-70
2023/09/06 02:42:22;;;;;;;17.50;14.60;;;13.90;99.90;;;;;;2087393;28;20029;-70
2023/09/06 02:43:23;;;;;;;16.27;14.50;;;13.90;99.90;;;;;;2086761;28;20059;-70
2023/09/06 02:44:24;;;;;;;17.85;14.27;;;14.00;99.90;;;;;;2083710;28;20091;-70
2023/09/06 02:45:36;;;;;;;16.65;14.52;;;13.90;99.90;;;;;;2090106;28;20641;-70
2023/09/06 02:46:38;;;;;;;16.77;14.75;;;13.90;99.90;;;;;;2084187;28;20589;-71
2023/09/06 02:47:47;;;;;;;16.42;14.40;;;13.90;99.90;;;;;;2073380;28;20672;-70
2023/09/06 02:48:48;;;;;;;16.95;15.05;;;13.90;99.90;;;;;;2072099;28;20458;-71
2023/09/06 02:49:49;;;;;;;17.75;15.00;;;13.90;99.90;;;;;;2091100;28;20040;-71
2023/09/06 02:50:49;;;;;;;16.90;14.88;;;13.90;99.90;;;;;;2091281;28;20035;-72
2023/09/06 02:51:51;;;;;;;19.20;14.68;;;13.90;99.90;;;;;;2083923;28;20606;-70
2023/09/06 02:52:56;;;;;;;16.27;14.15;;;13.90;99.90;;;;;;2091595;28;20025;-70
2023/09/06 02:53:57;;;;;;;17.92;14.23;;;13.90;99.90;;;;;;2086172;28;20040;-70
2023/09/06 02:54:59;;;;;;;17.27;14.60;;;13.90;99.90;;;;;;2085393;28;20021;-70
2023/09/06 02:56:01;;;;;;;17.30;14.38;;;13.90;99.90;;;;;;2083576;28;20029;-70
2023/09/06 02:57:02;;;;;;;20.05;14.50;;;13.90;99.90;;;;;;2087438;28;20179;-70
2023/09/06 02:58:04;;;;;;;16.67;14.23;;;13.90;99.90;;;;;;2087846;28;20151;-70
2023/09/06 02:59:12;;;;;;;17.17;15.00;;;13.90;99.90;;;;;;2092023;28;20028;-70
2023/09/06 03:00:25;;;;;;;15.70;13.80;;;13.90;99.90;;;;;;2090351;28;20027;-70
2023/09/06 03:01:25;;;;;;;17.00;14.30;;;13.80;99.90;;;;;;2086711;28;20143;-69
2023/09/06 03:02:26;;;;;;;15.73;14.02;;;13.80;99.90;;;;;;2082886;28;20082;-70
2023/09/06 03:03:27;;;;;;;15.95;14.13;;;13.80;99.90;;;;;;2083540;28;20124;-69
2023/09/06 03:04:33;;;;;;;15.75;14.05;;;13.80;99.90;;;;;;2085007;28;20028;-71
2023/09/06 03:05:41;;;;;;;17.95;14.10;;;13.80;99.90;;;;;;2086378;28;20021;-72
2023/09/06 03:06:43;;;;;;;15.32;13.65;;;13.80;99.90;;;;;;2084739;28;20021;-72
2023/09/06 03:07:48;;;;;;;15.85;14.15;;;13.80;99.90;;;;;;2091258;28;20025;-72
2023/09/06 03:08:51;;;;;;;16.63;14.05;;;13.80;99.90;;;;;;2083052;28;20032;-71
2023/09/06 03:09:52;;;;;;;17.00;14.23;;;13.80;99.90;;;;;;2076963;28;20040;-71
2023/09/06 03:10:52;;;;;;;18.58;14.63;;;13.80;99.90;;;;;;2084566;28;20040;-71
2023/09/06 03:11:53;;;;;;;16.02;13.70;;;13.80;99.90;;;;;;2089917;28;20475;-70
2023/09/06 03:12:57;;;;;;;17.70;14.05;;;13.80;99.90;;;;;;2087711;28;20025;-71
2023/09/06 03:14:02;;;;;;;16.70;14.07;;;13.70;99.90;;;;;;2084238;28;20035;-71
2023/09/06 03:15:03;;;;;;;17.15;14.70;;;13.70;99.90;;;;;;2088857;28;20524;-71
2023/09/06 03:16:04;;;;;;;18.30;14.00;;;13.70;99.90;;;;;;2086707;28;20021;-71
2023/09/06 03:17:08;;;;;;;17.70;14.40;;;13.70;99.90;;;;;;2088041;28;20128;-71
2023/09/06 03:18:10;;;;;;;16.25;14.10;;;13.70;99.90;;;;;;2086847;28;20025;-70
2023/09/06 03:19:12;;;;;;;16.33;14.15;;;13.70;99.90;;;;;;2086922;28;20655;-72
2023/09/06 03:20:32;;;;;;;18.67;14.73;;;13.70;99.90;;;;;;2092652;28;20020;-72
2023/09/06 03:21:34;;;;;;;16.70;14.30;;;13.70;99.90;;;;;;2087064;28;20044;-71
2023/09/06 03:22:37;;;;;;;16.98;14.30;;;13.70;99.90;;;;;;2084586;28;20025;-71
2023/09/06 03:23:38;;;;;;;19.17;14.80;;;13.70;99.90;;;;;;2085361;28;20021;-70
2023/09/06 03:24:43;;;;;;;17.73;14.60;;;13.70;99.90;;;;;;2082476;28;20407;-70
2023/09/06 03:25:44;;;;;;;15.68;14.00;;;13.70;99.90;;;;;;2085513;28;20112;-71
2023/09/06 03:26:45;;;;;;;19.33;14.93;;;13.70;99.90;;;;;;2092141;28;20041;-70
2023/09/06 03:27:47;;;;;;;16.23;13.70;;;13.70;99.90;;;;;;2091850;28;20072;-70
2023/09/06 03:28:48;;;;;;;16.75;14.93;;;13.70;99.90;;;;;;2093751;28;20058;-71
2023/09/06 03:29:51;;;;;;;16.20;14.35;;;13.70;99.90;;;;;;2080938;28;20214;-71
2023/09/06 03:30:58;;;;;;;18.48;15.07;;;13.70;99.90;;;;;;2090841;28;20112;-71
2023/09/06 03:31:59;;;;;;;18.73;13.75;;;13.70;99.90;;;;;;2091895;28;20070;-71
2023/09/06 03:33:00;;;;;;;17.42;13.60;;;13.70;99.90;;;;;;2081067;28;20040;-71
2023/09/06 03:34:03;;;;;;;16.75;14.57;;;13.60;99.90;;;;;;2088820;28;20025;-72
2023/09/06 03:35:04;;;;;;;16.08;13.50;;;13.60;99.90;;;;;;2092199;28;20119;-72
2023/09/06 03:36:08;;;;;;;19.30;14.93;;;13.60;99.90;;;;;;2084351;28;20037;-72
2023/09/06 03:37:10;;;;;;;17.27;14.52;;;13.60;99.90;;;;;;2088371;28;20025;-71
2023/09/06 03:38:15;;;;;;;15.70;14.00;;;13.60;99.90;;;;;;2089424;28;20525;-72
2023/09/06 03:39:18;;;;;;;16.88;14.68;;;13.60;99.90;;;;;;2084885;28;20511;-72
2023/09/06 03:40:25;;;;;;;17.27;13.95;;;13.60;99.90;;;;;;2086575;28;20843;-73
2023/09/06 03:41:27;;;;;;;17.20;13.98;;;13.60;99.90;;;;;;2078140;28;20508;-72
2023/09/06 03:42:27;;;;;;;15.57;13.85;;;13.60;99.90;;;;;;2085255;28;20021;-72
2023/09/06 03:43:32;;;;;;;16.88;13.90;;;13.60;99.90;;;;;;2087045;28;20009;-72
2023/09/06 03:44:32;;;;;;;16.52;14.07;;;13.60;99.90;;;;;;2086469;28;20020;-72
2023/09/06 03:45:34;;;;;;;15.45;13.80;;;13.60;99.90;;;;;;2087393;28;20742;-72
2023/09/06 03:46:34;;;;;;;15.98;14.27;;;13.60;99.90;;;;;;2091423;28;20108;-72
2023/09/06 03:47:35;;;;;;;18.13;14.45;;;13.60;99.90;;;;;;2086588;28;20541;-72
2023/09/06 03:48:36;;;;;;;17.77;14.50;;;13.50;99.90;;;;;;2082396;28;20033;-72
2023/09/06 03:49:37;;;;;;;16.60;14.50;;;13.50;99.90;;;;;;2093737;28;20115;-72
2023/09/06 03:50:37;;;;;;;18.40;14.13;;;13.50;99.90;;;;;;2088378;28;20566;-72
2023/09/06 03:51:38;;;;;;;18.05;14.43;;;13.50;99.90;;;;;;2092753;28;20028;-72
2023/09/06 03:52:39;;;;;;;16.63;14.43;;;13.50;99.90;;;;;;2090658;28;20032;-72
2023/09/06 03:53:41;;;;;;;16.65;14.10;;;13.50;99.90;;;;;;2093240;28;20419;-72
2023/09/06 03:54:43;;;;;;;17.75;14.45;;;13.50;99.90;;;;;;2086224;28;20029;-72
2023/09/06 03:55:46;;;;;;;17.42;14.77;;;13.50;99.90;;;;;;2083056;28;20377;-71
2023/09/06 03:56:47;;;;;;;18.58;14.70;;;13.50;99.90;;;;;;2085419;28;20029;-71
2023/09/06 03:57:48;;;;;;;16.05;14.35;;;13.50;99.90;;;;;;2095943;28;20024;-72
2023/09/06 03:58:53;;;;;;;17.45;14.77;;;13.50;99.90;;;;;;2085217;28;20036;-72
2023/09/06 03:59:53;;;;;;;15.80;13.60;;;13.50;99.90;;;;;;2084309;28;20017;-72
2023/09/06 04:00:54;;;;;;;16.55;13.70;;;13.40;99.90;;;;;;2079538;28;20033;-71
2023/09/06 04:02:00;;;;;;;18.45;13.88;;;13.50;99.90;;;;;;2085496;28;20794;-71
2023/09/06 04:03:03;;;;;;;18.30;14.43;;;13.40;99.90;;;;;;2086921;28;20511;-72
2023/09/06 04:04:04;;;;;;;17.27;13.25;;;13.40;99.90;;;;;;2086297;28;20037;-72
2023/09/06 04:05:05;;;;;;;15.80;13.10;;;13.40;99.90;;;;;;2089041;28;20082;-71
2023/09/06 04:06:07;;;;;;;15.82;14.13;;;13.30;99.90;;;;;;2088191;28;20554;-71
2023/09/06 04:07:09;;;;;;;17.42;14.68;;;13.30;99.90;;;;;;2081590;28;20030;-72
2023/09/06 04:08:09;;;;;;;18.55;14.50;;;13.30;99.90;;;;;;2088045;28;20512;-72
2023/09/06 04:09:13;;;;;;;17.83;14.40;;;13.30;99.90;;;;;;2089390;28;20551;-71
2023/09/06 04:10:16;;;;;;;16.75;14.15;;;13.30;99.90;;;;;;2086137;28;20021;-70
2023/09/06 04:11:17;;;;;;;16.98;14.23;;;13.30;99.90;;;;;;2093240;28;20036;-70
2023/09/06 04:12:17;;;;;;;15.85;13.60;;;13.30;99.90;;;;;;2091956;28;20481;-71
2023/09/06 04:13:18;;;;;;;17.73;14.23;;;13.30;99.90;;;;;;2088685;28;20090;-70
2023/09/06 04:14:22;;;;;;;17.27;14.25;;;13.30;99.90;;;;;;2075840;28;20034;-70
2023/09/06 04:15:24;;;;;;;20.02;14.15;;;13.30;99.90;;;;;;2082832;28;20061;-70
2023/09/06 04:16:25;;;;;;;16.08;13.32;;;13.30;99.90;;;;;;2072746;28;20826;-70
2023/09/06 04:17:27;;;;;;;14.95;13.45;;;13.30;99.90;;;;;;2082891;28;20029;-70
2023/09/06 04:18:28;;;;;;;16.88;13.05;;;13.30;99.90;;;;;;2092160;28;20028;-71
2023/09/06 04:19:29;;;;;;;16.92;14.50;;;13.30;99.90;;;;;;2085795;28;20240;-71
2023/09/06 04:20:44;;;;;;;18.42;13.98;;;13.30;99.90;;;;;;2086845;28;20017;-72
2023/09/06 04:21:48;;;;;;;17.92;14.23;;;13.30;99.90;;;;;;2086023;28;20025;-71
2023/09/06 04:22:51;;;;;;;15.98;13.95;;;13.30;99.90;;;;;;2087449;28;20038;-72
2023/09/06 04:23:51;;;;;;;16.30;13.90;;;13.30;99.90;;;;;;2084180;28;20115;-71
2023/09/06 04:24:54;;;;;;;16.50;13.55;;;13.40;99.90;;;;;;2075977;28;20104;-71
2023/09/06 04:25:55;;;;;;;15.38;13.35;;;13.40;99.90;;;;;;2083690;28;20585;-71
2023/09/06 04:26:59;;;;;;;18.20;13.68;;;13.40;99.90;;;;;;2084848;28;20508;-71
2023/09/06 04:28:07;;;;;;;18.65;14.15;;;13.40;99.90;;;;;;2078503;28;20033;-72
2023/09/06 04:29:07;;;;;;;16.73;14.48;;;13.40;99.90;;;;;;2087352;28;20032;-71
2023/09/06 04:30:08;;;;;;;20.67;14.50;;;13.40;99.90;;;;;;2094156;28;20694;-70
2023/09/06 04:31:09;;;;;;;20.42;14.73;;;13.40;99.90;;;;;;2083623;28;20107;-71
2023/09/06 04:32:17;;;;;;;18.83;14.50;;;13.40;99.90;;;;;;2081998;28;20109;-71
2023/09/06 04:33:18;;;;;;;17.92;14.57;;;13.40;99.90;;;;;;2076187;28;20021;-71
2023/09/06 04:34:25;;;;;;;16.15;13.60;;;13.40;99.90;;;;;;2084019;28;20035;-72
2023/09/06 04:35:33;;;;;;;16.55;13.52;;;13.50;99.90;;;;;;2088594;28;20028;-72
2023/09/06 04:36:36;;;;;;;19.48;14.07;;;13.50;99.90;;;;;;2088750;28;20029;-71
2023/09/06 04:37:40;;;;;;;21.20;14.95;;;13.50;99.90;;;;;;2085033;28;20037;-71
2023/09/06 04:38:43;;;;;;;18.10;14.50;;;13.50;99.90;;;;;;2079604;28;20036;-71
2023/09/06 04:39:46;;;;;;;19.08;14.27;;;13.50;99.90;;;;;;2084191;28;20410;-72
2023/09/06 04:40:48;;;;;;;17.65;14.55;;;13.50;99.90;;;;;;2077656;28;20456;-71
2023/09/06 04:41:52;;;;;;;18.77;14.80;;;13.50;99.90;;;;;;2084568;28;20419;-72
2023/09/06 04:42:54;;;;;;;17.48;14.75;;;13.50;99.90;;;;;;2090923;28;20021;-72
2023/09/06 04:43:55;;;;;;;19.40;14.27;;;13.50;99.90;;;;;;2095217;28;20020;-72
2023/09/06 04:44:56;;;;;;;18.80;14.77;;;13.50;99.90;;;;;;2088436;28;20025;-71
2023/09/06 04:45:58;;;;;;;18.98;14.35;;;13.50;99.90;;;;;;2087358;28;20881;-71
2023/09/06 04:46:59;;;;;;;17.83;14.70;;;13.50;99.90;;;;;;2084690;28;20025;-72
2023/09/06 04:48:00;;;;;;;22.27;14.73;;;13.50;99.90;;;;;;2081385;28;20551;-72
2023/09/06 04:49:01;;;;;;;18.33;14.00;;;13.60;99.90;;;;;;2089826;28;20025;-71
2023/09/06 04:50:03;;;;;;;20.42;14.73;;;13.60;99.90;;;;;;2092203;28;20032;-71
2023/09/06 04:51:05;;;;;;;21.45;14.68;;;13.60;99.90;;;;;;2086602;28;20032;-71
2023/09/06 04:52:05;;;;;;;20.88;14.02;;;13.60;99.90;;;;;;2088381;28;20083;-71
2023/09/06 04:53:11;;;;;;;18.30;13.77;;;13.60;99.90;;;;;;2089560;28;20033;-71
2023/09/06 04:54:12;;;;;;;18.50;14.20;;;13.60;99.90;;;;;;2092608;28;20020;-71
2023/09/06 04:55:14;;;;;;;18.65;14.50;;;13.60;99.90;;;;;;2076699;28;20033;-71
2023/09/06 04:56:16;;;;;;;17.35;14.10;;;13.60;99.90;;;;;;2083269;28;20045;-71
2023/09/06 04:57:19;;;;;;;20.23;14.15;;;13.60;99.90;;;;;;2090121;28;20032;-71
2023/09/06 04:58:20;;;;;;;20.08;14.27;;;13.60;99.90;;;;;;2080034;28;20630;-71
2023/09/06 04:59:22;;;;;;;19.23;14.48;;;13.60;99.90;;;;;;2093036;28;20084;-72
2023/09/06 05:00:30;;;;;;;18.70;14.10;;;13.70;99.90;;;;;;2096287;28;20024;-71
2023/09/06 05:01:31;;;;;;;21.33;14.48;;;13.70;99.90;;;;;;2084578;28;20021;-71
2023/09/06 05:02:31;;;;;;;20.55;14.40;;;13.70;99.90;;;;;;2083858;28;20043;-72
2023/09/06 05:03:33;;;;;;;21.73;14.20;;;13.70;99.90;;;;;;2094702;28;20039;-72
2023/09/06 05:04:36;;;;;;;17.17;13.55;;;13.70;99.90;;;;;;2086184;28;20031;-73
2023/09/06 05:05:41;;;;;;;19.17;13.50;;;13.80;99.90;;;;;;2083686;28;20033;-70
2023/09/06 05:06:42;;;;;;;20.98;14.27;;;14.00;99.90;;;;;;2078703;28;20087;-70
2023/09/06 05:07:45;;;;;;;20.45;13.65;;;14.10;99.90;;;;;;2094308;28;20645;-72
2023/09/06 05:08:45;;;;;;;21.98;13.90;;;14.30;99.90;;;;;;2085820;28;20074;-72
2023/09/06 05:09:56;;;;;;;20.50;13.18;;;14.40;99.90;;;;;;2091627;28;20064;-72
2023/09/06 05:10:57;;;;;;;19.67;12.95;;;14.70;99.90;;;;;;2100341;28;20023;-72
2023/09/06 05:11:58;;;;;;;19.10;12.95;;;15.00;99.90;;;;;;2092072;28;20149;-72
2023/09/06 05:12:59;;;;;;;19.73;12.63;;;15.20;99.90;;;;;;2094937;28;20761;-72
2023/09/06 05:13:59;;;;;;;18.50;12.32;;;15.40;99.90;;;;;;2095685;28;20075;-72
2023/09/06 05:15:03;;;;;;;19.08;12.35;;;15.60;99.90;;;;;;2084499;28;20583;-72
2023/09/06 05:16:05;;;;;;;19.50;12.68;;;15.90;99.90;;;;;;2090972;28;20518;-73
2023/09/06 05:17:07;;;;;;;21.35;12.27;;;16.10;99.90;;;;;;2090776;28;20024;-72